Time;durP1;ratioP1;P1;durP2;ratioP2;P2;SDS_P1;SDS_P2;PMS_P1;PMS_P2;Temp;Humidity;BMP_temperature;BMP_pressure;BME280_temperature;BME280_humidity;BME280_pressure;Samples;Min_cycle;Max_cycle;Signal;HPM_P1;HPM_P2
2022/06/22 00:00:34;;;;;;;;;;;;;;;;;;5080611;28;19925;-85
2022/06/22 00:03:00;;;;;;;;;;;;;;;;;;5081951;28;19982;-86
2022/06/22 00:05:27;;;;;;;;;;;;;;;;;;5077213;28;19962;-86
2022/06/22 00:07:53;;;;;;;;;;;;;;;;;;5081225;28;20394;-85
2022/06/22 00:10:18;;;;;;;;;;;;;;;;;;5069321;28;19928;-84
2022/06/22 00:12:44;;;;;;;;;;;;;;;;;;5078503;28;19932;-84
2022/06/22 00:15:10;;;;;;;;;;;;;;;;;;5083005;28;19973;-85
2022/06/22 00:17:36;;;;;;;;;;;;;;;;;;5064759;28;19920;-86
2022/06/22 00:20:03;;;;;;;;;;;;;;;;;;5069887;28;19948;-86
2022/06/22 00:22:29;;;;;;;;;;;;;;;;;;5080444;28;19920;-86
2022/06/22 00:24:54;;;;;;;;;;;;;;;;;;5082271;28;19998;-85
2022/06/22 00:27:20;;;;;;;;;;;;;;;;;;5083255;28;19967;-84
2022/06/22 00:29:46;;;;;;;;;;;;;;;;;;5077541;28;19938;-83
2022/06/22 00:32:12;;;;;;;;;;;;;;;;;;5079533;28;20045;-85
2022/06/22 00:34:38;;;;;;;;;;;;;;;;;;5070574;28;20274;-86
2022/06/22 00:37:04;;;;;;;;;;;;;;;;;;5067167;28;19967;-86
2022/06/22 00:39:30;;;;;;;;;;;;;;;;;;5082448;28;19926;-86
2022/06/22 00:41:56;;;;;;;;;;;;;;;;;;5067565;28;19920;-85
2022/06/22 00:44:22;;;;;;;;;;;;;;;;;;5082270;28;19920;-86
2022/06/22 00:46:48;;;;;;;;;;;;;;;;;;5080872;28;20385;-85
2022/06/22 00:49:14;;;;;;;;;;;;;;;;;;5063304;28;19927;-83
2022/06/22 00:51:40;;;;;;;;;;;;;;;;;;5066382;28;20602;-80
2022/06/22 00:54:06;;;;;;;;;;;;;;;;;;5083954;28;19920;-86
2022/06/22 00:56:32;;;;;;;;;;;;;;;;;;5066352;28;20268;-87
2022/06/22 00:58:58;;;;;;;;;;;;;;;;;;5082992;28;20000;-87
2022/06/22 01:01:24;;;;;;;;;;;;;;;;;;5067554;28;20346;-85
2022/06/22 01:03:50;;;;;;;;;;;;;;;;;;5084374;28;19926;-86
2022/06/22 01:06:16;;;;;;;;;;;;;;;;;;5078101;28;19950;-86
2022/06/22 01:08:42;;;;;;;;;;;;;;;;;;5065719;28;19926;-84
2022/06/22 01:12:16;;;;;;;;;;;;;;;;;;5067444;28;20590;-85
2022/06/22 01:13:53;;;;;;;;;;;;;;;;;;5085093;28;19924;-84
2022/06/22 01:16:19;;;;;;;;;;;;;;;;;;5080968;28;19920;-85
2022/06/22 01:18:46;;;;;;;;;;;;;;;;;;5080576;28;19920;-86
2022/06/22 01:21:12;;;;;;;;;;;;;;;;;;5084127;28;19973;-84
2022/06/22 01:23:38;;;;;;;;;;;;;;;;;;5086692;28;19928;-85
2022/06/22 01:26:04;;;;;;;;;;;;;;;;;;5080722;28;19920;-85
2022/06/22 01:28:30;;;;;;;;;;;;;;;;;;5080990;28;20030;-86
2022/06/22 01:30:56;;;;;;;;;;;;;;;;;;5066255;28;20015;-85
2022/06/22 01:33:22;;;;;;;;;;;;;;;;;;5064377;28;20375;-85
2022/06/22 01:35:48;;;;;;;;;;;;;;;;;;5080653;28;19928;-85
2022/06/22 01:38:14;;;;;;;;;;;;;;;;;;5070700;28;20374;-85
2022/06/22 01:40:40;;;;;;;;;;;;;;;;;;5065681;28;19919;-86
2022/06/22 01:43:06;;;;;;;;;;;;;;;;;;5079403;28;20266;-86
2022/06/22 01:45:31;;;;;;;;;;;;;;;;;;5066105;28;20066;-86
2022/06/22 01:47:57;;;;;;;;;;;;;;;;;;5060534;28;19939;-86
2022/06/22 01:50:23;;;;;;;;;;;;;;;;;;5065404;28;19931;-86
2022/06/22 01:52:50;;;;;;;;;;;;;;;;;;5083504;28;19919;-86
2022/06/22 01:55:16;;;;;;;;;;;;;;;;;;5062771;28;20339;-87
2022/06/22 01:57:42;;;;;;;;;;;;;;;;;;5068554;28;19932;-87
2022/06/22 02:00:08;;;;;;;;;;;;;;;;;;5064513;28;20263;-87
2022/06/22 02:02:34;;;;;;;;;;;;;;;;;;5064212;28;20133;-87
2022/06/22 02:05:00;;;;;;;;;;;;;;;;;;5081865;28;19924;-89
2022/06/22 02:07:45;;;;;;;;;;;;;;;;;;5056444;28;20722;-87
2022/06/22 02:10:11;;;;;;;;;;;;;;;;;;5079501;28;19932;-86
2022/06/22 02:12:37;;;;;;;;;;;;;;;;;;5063491;28;19920;-87
2022/06/22 02:15:03;;;;;;;;;;;;;;;;;;5068358;28;19924;-87
2022/06/22 02:17:28;;;;;;;;;;;;;;;;;;5061958;28;20384;-87
2022/06/22 02:19:54;;;;;;;;;;;;;;;;;;5079975;28;20318;-86
2022/06/22 02:22:20;;;;;;;;;;;;;;;;;;5078799;28;20331;-86
2022/06/22 02:24:46;;;;;;;;;;;;;;;;;;5067756;28;20309;-85
2022/06/22 02:27:12;;;;;;;;;;;;;;;;;;5076248;28;19920;-85
2022/06/22 02:29:38;;;;;;;;;;;;;;;;;;5077512;28;19966;-87
2022/06/22 02:32:04;;;;;;;;;;;;;;;;;;5064939;28;19927;-86
2022/06/22 02:34:30;;;;;;;;;;;;;;;;;;5059469;28;19927;-84
2022/06/22 02:36:57;;;;;;;;;;;;;;;;;;5060922;28;20007;-84
2022/06/22 02:39:23;;;;;;;;;;;;;;;;;;5064465;28;19924;-86
2022/06/22 02:44:34;;;;;;;;;;;;;;;;;;5079552;28;19920;-85
2022/06/22 02:47:00;;;;;;;;;;;;;;;;;;5064508;28;19974;-85
2022/06/22 02:49:26;;;;;;;;;;;;;;;;;;5076634;28;19919;-84
2022/06/22 02:51:52;;;;;;;;;;;;;;;;;;5076383;28;19927;-85
2022/06/22 02:54:18;;;;;;;;;;;;;;;;;;5082052;28;20236;-86
2022/06/22 02:56:44;;;;;;;;;;;;;;;;;;5062566;28;20026;-85
2022/06/22 02:59:10;;;;;;;;;;;;;;;;;;5064228;28;20490;-86
2022/06/22 03:01:36;;;;;;;;;;;;;;;;;;5064458;28;19920;-84
2022/06/22 03:04:02;;;;;;;;;;;;;;;;;;5062031;28;19923;-84
2022/06/22 03:06:28;;;;;;;;;;;;;;;;;;5066376;28;20014;-85
2022/06/22 03:08:54;;;;;;;;;;;;;;;;;;5061328;28;20026;-84
2022/06/22 03:11:20;;;;;;;;;;;;;;;;;;5066282;28;19966;-83
2022/06/22 03:13:46;;;;;;;;;;;;;;;;;;5062499;28;19920;-84
2022/06/22 03:16:12;;;;;;;;;;;;;;;;;;5062499;28;19920;-83
2022/06/22 03:18:38;;;;;;;;;;;;;;;;;;5060900;28;19920;-85
2022/06/22 03:21:04;;;;;;;;;;;;;;;;;;5061494;28;20311;-85
2022/06/22 03:23:30;;;;;;;;;;;;;;;;;;5068499;28;19920;-85
2022/06/22 03:25:56;;;;;;;;;;;;;;;;;;5079342;28;19920;-84
2022/06/22 03:28:22;;;;;;;;;;;;;;;;;;5070020;28;19997;-85
2022/06/22 03:30:48;;;;;;;;;;;;;;;;;;5069929;28;19932;-84
2022/06/22 03:33:13;;;;;;;;;;;;;;;;;;5071473;28;19923;-84
2022/06/22 03:35:39;;;;;;;;;;;;;;;;;;5086364;28;19927;-84
2022/06/22 03:38:05;;;;;;;;;;;;;;;;;;5067151;28;19932;-86
2022/06/22 03:40:31;;;;;;;;;;;;;;;;;;5084980;28;19927;-85
2022/06/22 03:42:57;;;;;;;;;;;;;;;;;;5082772;28;19940;-84
2022/06/22 03:45:23;;;;;;;;;;;;;;;;;;5064241;28;19924;-84
2022/06/22 03:47:49;;;;;;;;;;;;;;;;;;5066314;28;19920;-84
2022/06/22 03:50:15;;;;;;;;;;;;;;;;;;5067513;28;20010;-84
2022/06/22 03:52:41;;;;;;;;;;;;;;;;;;5084808;28;19935;-83
2022/06/22 03:55:07;;;;;;;;;;;;;;;;;;5063958;28;19920;-85
2022/06/22 03:57:33;;;;;;;;;;;;;;;;;;5066972;28;19932;-85
2022/06/22 03:59:59;;;;;;;;;;;;;;;;;;5082959;28;20244;-85
2022/06/22 04:02:25;;;;;;;;;;;;;;;;;;5066294;28;19920;-84
2022/06/22 04:04:51;;;;;;;;;;;;;;;;;;5066281;28;19931;-84
2022/06/22 04:07:17;;;;;;;;;;;;;;;;;;5081366;28;19924;-84
2022/06/22 04:09:43;;;;;;;;;;;;;;;;;;5069194;28;19935;-83
2022/06/22 04:12:09;;;;;;;;;;;;;;;;;;5083304;28;19920;-84
2022/06/22 04:14:35;;;;;;;;;;;;;;;;;;5069499;28;19920;-84
2022/06/22 04:17:01;;;;;;;;;;;;;;;;;;5061201;28;19928;-84
2022/06/22 04:19:27;;;;;;;;;;;;;;;;;;5068047;28;19927;-84
2022/06/22 04:21:53;;;;;;;;;;;;;;;;;;5066516;28;20259;-83
2022/06/22 04:24:19;;;;;;;;;;;;;;;;;;5068358;28;19943;-84
2022/06/22 04:26:45;;;;;;;;;;;;;;;;;;5082727;28;19924;-82
2022/06/22 04:29:11;;;;;;;;;;;;;;;;;;5069236;28;20014;-83
2022/06/22 04:31:37;;;;;;;;;;;;;;;;;;5082666;28;20009;-84
2022/06/22 04:34:03;;;;;;;;;;;;;;;;;;5087227;28;19920;-84
2022/06/22 04:36:29;;;;;;;;;;;;;;;;;;5060112;28;19928;-84
2022/06/22 04:38:55;;;;;;;;;;;;;;;;;;5061524;28;20585;-83
2022/06/22 04:41:20;;;;;;;;;;;;;;;;;;5064039;28;20693;-84
2022/06/22 04:43:49;;;;;;;;;;;;;;;;;;5085327;28;19920;-83
2022/06/22 04:46:15;;;;;;;;;;;;;;;;;;5081710;28;19951;-83
2022/06/22 04:48:41;;;;;;;;;;;;;;;;;;5085639;28;20812;-81
2022/06/22 04:51:07;;;;;;;;;;;;;;;;;;5085700;28;19920;-83
2022/06/22 04:53:33;;;;;;;;;;;;;;;;;;5080420;28;19924;-84
2022/06/22 04:56:00;;;;;;;;;;;;;;;;;;5067140;28;19926;-84
2022/06/22 04:58:26;;;;;;;;;;;;;;;;;;5083888;28;20273;-84
2022/06/22 05:00:52;;;;;;;;;;;;;;;;;;5061802;28;19920;-84
2022/06/22 05:03:18;;;;;;;;;;;;;;;;;;5068394;28;19927;-85
2022/06/22 05:05:44;;;;;;;;;;;;;;;;;;5075253;28;20300;-81
2022/06/22 05:08:10;;;;;;;;;;;;;;;;;;5074036;28;19931;-82
2022/06/22 05:10:36;;;;;;;;;;;;;;;;;;5083088;28;21271;-86
2022/06/22 05:13:02;;;;;;;;;;;;;;;;;;5063875;28;19930;-87
2022/06/22 05:15:28;;;;;;;;;;;;;;;;;;5083012;28;19932;-89
2022/06/22 05:17:54;;;;;;;;;;;;;;;;;;5066831;28;19920;-86
2022/06/22 05:20:20;;;;;;;;;;;;;;;;;;5062739;28;19928;-82
2022/06/22 05:22:46;;;;;;;;;;;;;;;;;;5064472;28;20527;-90
2022/06/22 05:25:12;;;;;;;;;;;;;;;;;;5062211;28;19920;-88
2022/06/22 05:27:38;;;;;;;;;;;;;;;;;;5086515;28;19924;-89
2022/06/22 05:30:05;;;;;;;;;;;;;;;;;;5063299;28;19920;-81
2022/06/22 05:32:31;;;;;;;;;;;;;;;;;;5059732;28;19926;-85
2022/06/22 05:34:57;;;;;;;;;;;;;;;;;;5083513;28;19928;-94
2022/06/22 05:37:23;;;;;;;;;;;;;;;;;;5059373;28;20244;-91
2022/06/22 05:39:49;;;;;;;;;;;;;;;;;;5058978;28;19938;-88
2022/06/22 05:42:15;;;;;;;;;;;;;;;;;;5078548;28;19927;-87
2022/06/22 05:44:41;;;;;;;;;;;;;;;;;;5075832;28;19963;-86
2022/06/22 05:47:07;;;;;;;;;;;;;;;;;;5074107;28;19928;-85
2022/06/22 05:49:33;;;;;;;;;;;;;;;;;;5057919;28;19935;-84
2022/06/22 05:51:59;;;;;;;;;;;;;;;;;;5076387;28;19924;-85
2022/06/22 05:54:26;;;;;;;;;;;;;;;;;;5082815;28;20277;-86
2022/06/22 05:56:52;;;;;;;;;;;;;;;;;;5070987;28;19924;-86
2022/06/22 05:59:18;;;;;;;;;;;;;;;;;;5075481;28;20441;-85
2022/06/22 06:01:44;;;;;;;;;;;;;;;;;;5059062;28;20401;-84
2022/06/22 06:04:10;;;;;;;;;;;;;;;;;;5076213;28;19924;-85
2022/06/22 06:06:37;;;;;;;;;;;;;;;;;;5077019;28;20018;-85
2022/06/22 06:09:03;;;;;;;;;;;;;;;;;;5077293;28;19971;-86
2022/06/22 06:11:28;;;;;;;;;;;;;;;;;;5059920;28;19971;-85
2022/06/22 06:13:58;;;;;;;;;;;;;;;;;;5058911;28;19931;-84
2022/06/22 06:16:27;;;;;;;;;;;;;;;;;;5084810;28;20383;-85
2022/06/22 06:18:53;;;;;;;;;;;;;;;;;;5074071;28;20302;-85
2022/06/22 06:21:19;;;;;;;;;;;;;;;;;;5078914;28;19924;-84
2022/06/22 06:23:45;;;;;;;;;;;;;;;;;;5075205;28;19924;-84
2022/06/22 06:28:56;;;;;;;;;;;;;;;;;;5083739;28;19931;-84
2022/06/22 06:31:22;;;;;;;;;;;;;;;;;;5064899;28;19932;-84
2022/06/22 06:33:48;;;;;;;;;;;;;;;;;;5059938;28;19931;-84
2022/06/22 06:36:14;;;;;;;;;;;;;;;;;;5062590;28;19931;-84
2022/06/22 06:38:40;;;;;;;;;;;;;;;;;;5065750;28;19932;-85
2022/06/22 06:41:06;;;;;;;;;;;;;;;;;;5079762;28;20026;-85
2022/06/22 06:43:32;;;;;;;;;;;;;;;;;;5066610;28;19931;-85
2022/06/22 06:45:58;;;;;;;;;;;;;;;;;;5064764;28;20025;-85
2022/06/22 06:48:24;;;;;;;;;;;;;;;;;;5069476;28;19927;-84
2022/06/22 06:50:50;;;;;;;;;;;;;;;;;;5076678;28;19979;-83
2022/06/22 06:53:16;;;;;;;;;;;;;;;;;;5068419;28;19952;-84
2022/06/22 06:55:41;;;;;;;;;;;;;;;;;;5060573;28;19924;-85
2022/06/22 06:58:07;;;;;;;;;;;;;;;;;;5077781;28;19924;-85
2022/06/22 07:00:33;;;;;;;;;;;;;;;;;;5079614;28;20033;-84
2022/06/22 07:02:59;;;;;;;;;;;;;;;;;;5072962;28;19947;-85
2022/06/22 07:05:25;;;;;;;;;;;;;;;;;;5077312;28;19994;-85
2022/06/22 07:07:51;;;;;;;;;;;;;;;;;;5074556;28;19923;-84
2022/06/22 07:10:18;;;;;;;;;;;;;;;;;;5066264;28;20014;-84
2022/06/22 07:12:43;;;;;;;;;;;;;;;;;;5065194;28;20022;-84
2022/06/22 07:15:09;;;;;;;;;;;;;;;;;;5067664;28;20010;-85
2022/06/22 07:17:36;;;;;;;;;;;;;;;;;;5061208;28;19928;-84
2022/06/22 07:20:04;;;;;;;;;;;;;;;;;;5084023;28;19967;-84
2022/06/22 07:22:31;;;;;;;;;;;;;;;;;;5082055;28;19945;-83
2022/06/22 07:24:57;;;;;;;;;;;;;;;;;;5093682;28;20612;-86
2022/06/22 07:27:23;;;;;;;;;;;;;;;;;;5063173;28;19928;-87
2022/06/22 07:29:49;;;;;;;;;;;;;;;;;;5078804;28;19970;-87
2022/06/22 07:32:15;;;;;;;;;;;;;;;;;;5079705;28;19924;-90
2022/06/22 07:34:41;;;;;;;;;;;;;;;;;;5074090;28;20283;-86
2022/06/22 07:37:07;;;;;;;;;;;;;;;;;;5069679;28;19924;-85
2022/06/22 07:39:33;;;;;;;;;;;;;;;;;;5072488;28;19939;-86
2022/06/22 07:41:59;;;;;;;;;;;;;;;;;;5057204;28;19928;-85
2022/06/22 07:44:25;;;;;;;;;;;;;;;;;;5075270;28;20402;-85
2022/06/22 07:46:51;;;;;;;;;;;;;;;;;;5076011;28;19963;-86
2022/06/22 07:49:17;;;;;;;;;;;;;;;;;;5076577;28;20420;-88
2022/06/22 07:51:43;;;;;;;;;;;;;;;;;;5081712;28;19927;-88
2022/06/22 07:54:09;;;;;;;;;;;;;;;;;;5055694;28;19924;-90
2022/06/22 07:56:35;;;;;;;;;;;;;;;;;;5079206;28;19974;-85
2022/06/22 07:59:01;;;;;;;;;;;;;;;;;;5067301;28;19927;-85
2022/06/22 08:01:29;;;;;;;;;;;;;;;;;;5060674;28;19928;-85
2022/06/22 08:03:55;;;;;;;;;;;;;;;;;;5074028;28;19931;-83
2022/06/22 08:06:21;;;;;;;;;;;;;;;;;;5058187;28;19924;-86
2022/06/22 08:08:47;;;;;;;;;;;;;;;;;;5071391;28;19924;-83
2022/06/22 08:11:13;;;;;;;;;;;;;;;;;;5081251;28;19948;-89
2022/06/22 08:13:39;;;;;;;;;;;;;;;;;;5061413;28;20375;-87
2022/06/22 08:16:05;;;;;;;;;;;;;;;;;;5084411;28;19924;-87
2022/06/22 08:18:31;;;;;;;;;;;;;;;;;;5077415;28;20002;-84
2022/06/22 08:20:57;;;;;;;;;;;;;;;;;;5080975;28;20651;-85
2022/06/22 08:23:23;;;;;;;;;;;;;;;;;;5078389;28;20018;-85
2022/06/22 08:25:49;;;;;;;;;;;;;;;;;;5075862;28;20040;-85
2022/06/22 08:28:15;;;;;;;;;;;;;;;;;;5057319;28;19925;-85
2022/06/22 08:30:41;;;;;;;;;;;;;;;;;;5059334;28;20359;-84
2022/06/22 08:33:07;;;;;;;;;;;;;;;;;;5077669;28;20347;-85
2022/06/22 08:35:33;;;;;;;;;;;;;;;;;;5075882;28;20606;-85
2022/06/22 08:37:59;;;;;;;;;;;;;;;;;;5059114;28;19985;-86
2022/06/22 08:40:25;;;;;;;;;;;;;;;;;;5060542;28;19931;-86
2022/06/22 08:42:51;;;;;;;;;;;;;;;;;;5061613;28;19932;-85
2022/06/22 08:45:17;;;;;;;;;;;;;;;;;;5078578;28;19986;-84
2022/06/22 08:47:43;;;;;;;;;;;;;;;;;;5064363;28;20355;-84
2022/06/22 08:50:09;;;;;;;;;;;;;;;;;;5057189;28;19928;-85
2022/06/22 08:52:35;;;;;;;;;;;;;;;;;;5056809;28;20405;-86
2022/06/22 08:55:01;;;;;;;;;;;;;;;;;;5056538;28;20037;-86
2022/06/22 08:57:27;;;;;;;;;;;;;;;;;;5067430;28;20004;-86
2022/06/22 08:59:53;;;;;;;;;;;;;;;;;;5059221;28;19932;-85
2022/06/22 09:02:19;;;;;;;;;;;;;;;;;;5059732;28;19931;-85
2022/06/22 09:04:45;;;;;;;;;;;;;;;;;;5066900;28;20343;-86
2022/06/22 09:07:11;;;;;;;;;;;;;;;;;;5059404;28;19928;-86
2022/06/22 09:09:37;;;;;;;;;;;;;;;;;;5062655;28;19994;-86
2022/06/22 09:12:03;;;;;;;;;;;;;;;;;;5069318;28;19928;-86
2022/06/22 09:14:29;;;;;;;;;;;;;;;;;;5074219;28;19986;-85
2022/06/22 09:16:55;;;;;;;;;;;;;;;;;;5058235;28;19927;-88
2022/06/22 09:19:21;;;;;;;;;;;;;;;;;;5100511;28;19937;-87
2022/06/22 09:21:47;;;;;;;;;;;;;;;;;;5063813;28;19924;-88
2022/06/22 09:24:13;;;;;;;;;;;;;;;;;;5076704;28;19977;-86
2022/06/22 09:26:39;;;;;;;;;;;;;;;;;;5070128;28;20011;-85
2022/06/22 09:29:05;;;;;;;;;;;;;;;;;;5081139;28;20359;-85
2022/06/22 09:31:31;;;;;;;;;;;;;;;;;;5077786;28;19928;-86
2022/06/22 09:33:57;;;;;;;;;;;;;;;;;;5078935;28;19971;-90
2022/06/22 09:36:23;;;;;;;;;;;;;;;;;;5091018;28;19924;-92
2022/06/22 09:38:49;;;;;;;;;;;;;;;;;;5068033;28;19924;-89
2022/06/22 09:41:15;;;;;;;;;;;;;;;;;;5062364;28;19949;-82
2022/06/22 09:43:41;;;;;;;;;;;;;;;;;;5077412;28;19939;-87
2022/06/22 09:46:07;;;;;;;;;;;;;;;;;;5076357;28;19936;-88
2022/06/22 09:48:33;;;;;;;;;;;;;;;;;;5058859;28;19964;-88
2022/06/22 09:50:59;;;;;;;;;;;;;;;;;;5072864;28;19931;-88
2022/06/22 09:53:25;;;;;;;;;;;;;;;;;;5078527;28;19924;-89
2022/06/22 09:58:35;;;;;;;;;;;;;;;;;;5076159;28;19923;-89
2022/06/22 10:01:01;;;;;;;;;;;;;;;;;;5091217;28;19924;-88
2022/06/22 10:03:27;;;;;;;;;;;;;;;;;;5066211;28;19930;-88
2022/06/22 10:05:53;;;;;;;;;;;;;;;;;;5074513;28;19978;-88
2022/06/22 10:08:19;;;;;;;;;;;;;;;;;;5063578;28;19924;-88
2022/06/22 10:10:45;;;;;;;;;;;;;;;;;;5069291;28;20321;-87
2022/06/22 10:13:11;;;;;;;;;;;;;;;;;;5079655;28;20245;-87
2022/06/22 10:15:37;;;;;;;;;;;;;;;;;;5060805;28;20014;-88
2022/06/22 10:18:03;;;;;;;;;;;;;;;;;;5058909;28;19932;-89
2022/06/22 10:20:29;;;;;;;;;;;;;;;;;;5062277;28;19939;-89
2022/06/22 10:22:55;;;;;;;;;;;;;;;;;;5057538;28;19935;-84
2022/06/22 10:25:21;;;;;;;;;;;;;;;;;;5062133;28;19924;-91
2022/06/22 10:27:47;;;;;;;;;;;;;;;;;;5074181;28;20038;-90
2022/06/22 10:30:13;;;;;;;;;;;;;;;;;;5058891;28;19974;-84
2022/06/22 10:32:39;;;;;;;;;;;;;;;;;;5079597;28;19931;-83
2022/06/22 10:35:05;;;;;;;;;;;;;;;;;;5068708;28;20396;-83
2022/06/22 10:37:31;;;;;;;;;;;;;;;;;;5056839;28;20360;-83
2022/06/22 10:39:56;;;;;;;;;;;;;;;;;;5071983;28;19924;-83
2022/06/22 10:45:10;;;;;;;;;;;;;;;;;;5076496;28;19939;-82
2022/06/22 10:47:36;;;;;;;;;;;;;;;;;;5061226;28;20359;-84
2022/06/22 10:50:02;;;;;;;;;;;;;;;;;;5070830;28;19935;-83
2022/06/22 10:52:28;;;;;;;;;;;;;;;;;;5076073;28;19932;-83
2022/06/22 10:54:54;;;;;;;;;;;;;;;;;;5073686;28;19939;-82
2022/06/22 10:57:20;;;;;;;;;;;;;;;;;;5071644;28;19924;-83
2022/06/22 10:59:46;;;;;;;;;;;;;;;;;;5058897;28;20056;-81
2022/06/22 11:02:12;;;;;;;;;;;;;;;;;;5077263;28;19943;-82
2022/06/22 11:04:38;;;;;;;;;;;;;;;;;;5072432;28;19924;-83
2022/06/22 11:07:04;;;;;;;;;;;;;;;;;;5056320;28;19932;-83
2022/06/22 11:09:30;;;;;;;;;;;;;;;;;;5056569;28;19931;-82
2022/06/22 11:11:56;;;;;;;;;;;;;;;;;;5076777;28;19927;-86
2022/06/22 11:14:22;;;;;;;;;;;;;;;;;;5076003;28;19931;-82
2022/06/22 11:16:48;;;;;;;;;;;;;;;;;;5068026;28;19938;-84
2022/06/22 11:19:13;;;;;;;;;;;;;;;;;;5056464;28;20349;-83
2022/06/22 11:21:39;;;;;;;;;;;;;;;;;;5072596;28;19932;-84
2022/06/22 11:24:05;;;;;;;;;;;;;;;;;;5092166;28;19924;-81
2022/06/22 11:32:01;;;;;;;;;;;;;;;;;;5070160;28;19928;-84
2022/06/22 11:34:27;;;;;;;;;;;;;;;;;;5080309;28;19924;-80
2022/06/22 11:36:52;;;;;;;;;;;;;;;;;;5074647;28;20018;-82
2022/06/22 11:39:18;;;;;;;;;;;;;;;;;;5071419;28;19927;-82
2022/06/22 11:41:44;;;;;;;;;;;;;;;;;;5054733;28;19932;-82
2022/06/22 11:44:10;;;;;;;;;;;;;;;;;;5063794;28;20604;-82
2022/06/22 11:46:36;;;;;;;;;;;;;;;;;;5051109;28;19924;-82
2022/06/22 11:49:02;;;;;;;;;;;;;;;;;;5070376;28;19973;-82
2022/06/22 11:51:28;;;;;;;;;;;;;;;;;;5075320;28;19927;-82
2022/06/22 11:53:54;;;;;;;;;;;;;;;;;;5057578;28;19935;-82
2022/06/22 11:56:21;;;;;;;;;;;;;;;;;;5059841;28;20370;-81
2022/06/22 11:58:47;;;;;;;;;;;;;;;;;;5071024;28;19924;-82
2022/06/22 12:01:13;;;;;;;;;;;;;;;;;;5080200;28;19928;-83
2022/06/22 12:03:39;;;;;;;;;;;;;;;;;;5073115;28;20015;-82
2022/06/22 12:06:04;;;;;;;;;;;;;;;;;;5079266;28;19924;-81
2022/06/22 12:08:30;;;;;;;;;;;;;;;;;;5076519;28;19973;-86
2022/06/22 12:10:58;;;;;;;;;;;;;;;;;;5074071;28;19947;-76
2022/06/22 12:13:24;;;;;;;;;;;;;;;;;;5058766;28;20484;-77
2022/06/22 12:15:50;;;;;;;;;;;;;;;;;;5062485;28;20003;-76
2022/06/22 12:18:16;;;;;;;;;;;;;;;;;;5062054;28;19924;-76
2022/06/22 12:20:42;;;;;;;;;;;;;;;;;;5068975;28;19966;-78
2022/06/22 12:23:08;;;;;;;;;;;;;;;;;;5064951;28;19946;-86
2022/06/22 12:25:34;;;;;;;;;;;;;;;;;;5085681;28;19932;-89
2022/06/22 12:28:00;;;;;;;;;;;;;;;;;;5065823;28;19935;-87
2022/06/22 12:30:26;;;;;;;;;;;;;;;;;;5095803;28;19924;-89
2022/06/22 12:32:52;;;;;;;;;;;;;;;;;;5063645;28;19934;-91
2022/06/22 12:35:18;;;;;;;;;;;;;;;;;;5093441;28;19924;-89
2022/06/22 12:37:44;;;;;;;;;;;;;;;;;;5073614;28;19928;-89
2022/06/22 12:40:10;;;;;;;;;;;;;;;;;;5061806;28;19928;-90
2022/06/22 12:42:36;;;;;;;;;;;;;;;;;;5076621;28;19986;-85
2022/06/22 12:45:02;;;;;;;;;;;;;;;;;;5078778;28;20015;-90
2022/06/22 12:47:28;;;;;;;;;;;;;;;;;;5066938;28;19923;-90
2022/06/22 12:49:53;;;;;;;;;;;;;;;;;;5083759;28;19942;-90
2022/06/22 12:52:19;;;;;;;;;;;;;;;;;;5075237;28;20011;-90
2022/06/22 12:54:45;;;;;;;;;;;;;;;;;;5087558;28;19924;-89
2022/06/22 12:57:11;;;;;;;;;;;;;;;;;;5061414;28;19932;-88
2022/06/22 12:59:37;;;;;;;;;;;;;;;;;;5071300;28;19931;-88
2022/06/22 13:02:03;;;;;;;;;;;;;;;;;;5093209;28;19927;-89
2022/06/22 13:04:29;;;;;;;;;;;;;;;;;;5062239;28;19928;-92
2022/06/22 13:06:55;;;;;;;;;;;;;;;;;;5064478;28;19924;-90
2022/06/22 13:09:21;;;;;;;;;;;;;;;;;;5083772;28;20025;-90
2022/06/22 13:11:49;;;;;;;;;;;;;;;;;;5076823;28;19933;-90
2022/06/22 13:14:15;;;;;;;;;;;;;;;;;;5068493;28;19974;-90
2022/06/22 13:16:41;;;;;;;;;;;;;;;;;;5082966;28;19924;-88
2022/06/22 13:19:07;;;;;;;;;;;;;;;;;;5062191;28;19928;-93
2022/06/22 13:21:33;;;;;;;;;;;;;;;;;;5079130;28;19924;-91
2022/06/22 13:23:59;;;;;;;;;;;;;;;;;;5062443;28;19924;-91
2022/06/22 13:26:25;;;;;;;;;;;;;;;;;;5079684;28;19971;-91
2022/06/22 13:28:51;;;;;;;;;;;;;;;;;;5072229;28;19928;-89
2022/06/22 13:31:17;;;;;;;;;;;;;;;;;;5070482;28;20385;-90
2022/06/22 13:33:43;;;;;;;;;;;;;;;;;;5073771;28;19924;-89
2022/06/22 13:36:09;;;;;;;;;;;;;;;;;;5090373;28;20473;-91
2022/06/22 13:38:36;;;;;;;;;;;;;;;;;;5083612;28;19971;-90
2022/06/22 13:41:01;;;;;;;;;;;;;;;;;;5077855;28;19938;-89
2022/06/22 13:43:27;;;;;;;;;;;;;;;;;;5063125;28;19924;-89
2022/06/22 13:45:53;;;;;;;;;;;;;;;;;;5082854;28;19928;-88
2022/06/22 13:48:19;;;;;;;;;;;;;;;;;;5076161;28;20263;-90
2022/06/22 13:51:09;;;;;;;;;;;;;;;;;;5084583;28;19925;-89
2022/06/22 13:53:32;;;;;;;;;;;;;;;;;;5078320;28;20275;-84
2022/06/22 13:55:59;;;;;;;;;;;;;;;;;;5060977;28;19990;-81
2022/06/22 13:58:25;;;;;;;;;;;;;;;;;;5076455;28;19924;-80
2022/06/22 14:00:51;;;;;;;;;;;;;;;;;;5074728;28;20021;-80
2022/06/22 14:03:17;;;;;;;;;;;;;;;;;;5094974;28;19928;-83
2022/06/22 14:05:44;;;;;;;;;;;;;;;;;;5093350;28;20372;-86
2022/06/22 14:08:10;;;;;;;;;;;;;;;;;;5075607;28;20124;-85
2022/06/22 14:10:36;;;;;;;;;;;;;;;;;;5074342;28;19935;-84
2022/06/22 14:13:02;;;;;;;;;;;;;;;;;;5058073;28;19928;-85
2022/06/22 14:15:29;;;;;;;;;;;;;;;;;;5065859;28;20434;-83
2022/06/22 14:17:54;;;;;;;;;;;;;;;;;;5078625;28;19976;-84
2022/06/22 14:20:20;;;;;;;;;;;;;;;;;;5075675;28;20359;-86
2022/06/22 14:22:46;;;;;;;;;;;;;;;;;;5071789;28;19932;-90
2022/06/22 14:25:12;;;;;;;;;;;;;;;;;;5061112;28;19932;-87
2022/06/22 14:27:38;;;;;;;;;;;;;;;;;;5075926;28;20482;-95
2022/06/22 14:30:04;;;;;;;;;;;;;;;;;;5060678;28;19928;-87
2022/06/22 14:32:30;;;;;;;;;;;;;;;;;;5088376;28;20263;-88
2022/06/22 14:34:56;;;;;;;;;;;;;;;;;;5077887;28;19949;-85
2022/06/22 14:37:22;;;;;;;;;;;;;;;;;;5086090;28;19923;-83
2022/06/22 14:39:50;;;;;;;;;;;;;;;;;;5092887;28;20341;-84
2022/06/22 14:42:16;;;;;;;;;;;;;;;;;;5067576;28;19924;-85
2022/06/22 14:44:42;;;;;;;;;;;;;;;;;;5090060;28;19947;-85
2022/06/22 14:47:08;;;;;;;;;;;;;;;;;;5058920;28;20367;-85
2022/06/22 14:49:34;;;;;;;;;;;;;;;;;;5079481;28;19981;-85
2022/06/22 14:52:00;;;;;;;;;;;;;;;;;;5095322;28;19924;-85
2022/06/22 14:54:26;;;;;;;;;;;;;;;;;;5061045;28;20301;-84
2022/06/22 14:56:52;;;;;;;;;;;;;;;;;;5080674;28;20367;-83
2022/06/22 14:59:18;;;;;;;;;;;;;;;;;;5091029;28;19927;-86
2022/06/22 15:01:44;;;;;;;;;;;;;;;;;;5076794;28;19991;-87
2022/06/22 15:04:10;;;;;;;;;;;;;;;;;;5062629;28;19928;-84
2022/06/22 15:06:36;;;;;;;;;;;;;;;;;;5067513;28;19981;-85
2022/06/22 15:09:02;;;;;;;;;;;;;;;;;;5061245;28;19928;-82
2022/06/22 15:14:13;;;;;;;;;;;;;;;;;;5074548;28;20052;-86
2022/06/22 15:16:39;;;;;;;;;;;;;;;;;;5060307;28;20003;-88
2022/06/22 15:19:04;;;;;;;;;;;;;;;;;;5075945;28;19924;-85
2022/06/22 15:21:30;;;;;;;;;;;;;;;;;;5063851;28;19938;-87
2022/06/22 15:23:57;;;;;;;;;;;;;;;;;;5076723;28;19931;-86
2022/06/22 15:26:23;;;;;;;;;;;;;;;;;;5091868;28;19962;-84
2022/06/22 15:28:49;;;;;;;;;;;;;;;;;;5061767;28;20278;-86
2022/06/22 15:31:15;;;;;;;;;;;;;;;;;;5083998;28;19999;-85
2022/06/22 15:33:41;;;;;;;;;;;;;;;;;;5077054;28;19928;-85
2022/06/22 15:36:06;;;;;;;;;;;;;;;;;;5074768;28;20358;-86
2022/06/22 15:38:32;;;;;;;;;;;;;;;;;;5076180;28;19970;-86
2022/06/22 15:40:58;;;;;;;;;;;;;;;;;;5064953;28;19924;-83
2022/06/22 15:43:24;;;;;;;;;;;;;;;;;;5095406;28;20014;-86
2022/06/22 15:45:50;;;;;;;;;;;;;;;;;;5081514;28;19924;-85
2022/06/22 15:48:16;;;;;;;;;;;;;;;;;;5078446;28;20402;-83
2022/06/22 15:50:42;;;;;;;;;;;;;;;;;;5078164;28;19959;-84
2022/06/22 15:53:08;;;;;;;;;;;;;;;;;;5080320;28;20321;-83
2022/06/22 15:55:34;;;;;;;;;;;;;;;;;;5065323;28;20248;-83
2022/06/22 15:58:00;;;;;;;;;;;;;;;;;;5083987;28;20301;-89
2022/06/22 16:00:26;;;;;;;;;;;;;;;;;;5077142;28;20415;-86
2022/06/22 16:02:52;;;;;;;;;;;;;;;;;;5060381;28;19971;-85
2022/06/22 16:05:18;;;;;;;;;;;;;;;;;;5060982;28;19924;-78
2022/06/22 16:07:44;;;;;;;;;;;;;;;;;;5079055;28;19927;-80
2022/06/22 16:10:10;;;;;;;;;;;;;;;;;;5090478;28;19924;-81
2022/06/22 16:15:20;;;;;;;;;;;;;;;;;;5080033;28;19974;-83
2022/06/22 16:17:48;;;;;;;;;;;;;;;;;;5076203;28;19928;-87
2022/06/22 16:20:17;;;;;;;;;;;;;;;;;;5092677;28;19936;-89
2022/06/22 16:22:43;;;;;;;;;;;;;;;;;;5085872;28;19930;-89
2022/06/22 16:25:09;;;;;;;;;;;;;;;;;;5061608;28;20030;-91
2022/06/22 16:27:35;;;;;;;;;;;;;;;;;;5067086;28;19928;-91
2022/06/22 16:30:01;;;;;;;;;;;;;;;;;;5065445;28;19978;-87
2022/06/22 16:32:27;;;;;;;;;;;;;;;;;;5078924;28;21776;-89
2022/06/22 16:34:53;;;;;;;;;;;;;;;;;;5077389;28;19924;-90
2022/06/22 16:37:19;;;;;;;;;;;;;;;;;;5063893;28;19932;-91
2022/06/22 16:39:45;;;;;;;;;;;;;;;;;;5080934;28;19955;-91
2022/06/22 16:42:11;;;;;;;;;;;;;;;;;;5085769;28;19970;-93
2022/06/22 16:44:37;;;;;;;;;;;;;;;;;;5063687;28;19931;-89
2022/06/22 16:47:03;;;;;;;;;;;;;;;;;;5071788;28;19928;-91
2022/06/22 16:49:28;;;;;;;;;;;;;;;;;;5068254;28;19978;-91
2022/06/22 16:51:54;;;;;;;;;;;;;;;;;;5065547;28;19977;-89
2022/06/22 16:54:20;;;;;;;;;;;;;;;;;;5066614;28;19924;-86
2022/06/22 16:56:46;;;;;;;;;;;;;;;;;;5064752;28;19924;-91
2022/06/22 16:59:12;;;;;;;;;;;;;;;;;;5078830;28;20263;-86